CheckWX is a tool to help pilots better visualize weather data.  It is not intended as a substitute for an official pre-flight weather briefing.

07:47:34 UTC

KLBX TAF
Texas Gulf Coast Regional Airport
Angleton/Lake Jackson, Texas, USA
KLBX 230523Z 2306/2406 13006KT P6SM BKN045 BKN250 FM231800 16014KT P6SM BKN025 OVC045 FM240000 14010KT P6SM OVC025 FM240400 15010KT P6SM OVC015

Feb-23@
06:00 UTC

Feb-23 @ 06:00 UTC

Feb-23@
18:00 UTC

Feb-23 @ 18:00 UTC

KLBX 230523Z 2306/2406 13006KT P6SM BKN045 BKN250
Wind
  • 130° at 6 KTS
Cloud Levels
  • Broken at 4,500' AGL
  • Broken at 25,000' AGL

Feb-23@
18:00 UTC

Feb-23 @ 18:00 UTC

Feb-24@
00:00 UTC

Feb-24 @ 00:00 UTC

FM231800 16014KT P6SM BKN025 OVC045

From

From Standard forecast or significant change

Wind
  • 160° at 14 KTS
Cloud Levels
  • Broken at 2,500' AGL
  • Overcast at 4,500' AGL

Feb-24@
00:00 UTC

Feb-24 @ 00:00 UTC

Feb-24@
04:00 UTC

Feb-24 @ 04:00 UTC

FM240000 14010KT P6SM OVC025

From

From Standard forecast or significant change

Wind
  • 140° at 10 KTS
Cloud Levels
  • Overcast at 2,500' AGL

Feb-24@
04:00 UTC

Feb-24 @ 04:00 UTC

Feb-24@
06:00 UTC

Feb-24 @ 06:00 UTC

FM240400 15010KT P6SM OVC015

From

From Standard forecast or significant change

Wind
  • 150° at 10 KTS
Cloud Levels
  • Overcast at 1,500' AGL